sensor_id;sensor_type;location;lat;lon;timestamp;P1;durP1;ratioP1;P2;durP2;ratioP2
13325;SDS011;6732;51.044;3.746;2022-10-16T00:01:30;1.45;;;0.88;;
13325;SDS011;6732;51.044;3.746;2022-10-16T00:03:57;2.08;;;1.00;;
13325;SDS011;6732;51.044;3.746;2022-10-16T00:06:24;1.50;;;1.00;;
13325;SDS011;6732;51.044;3.746;2022-10-16T00:08:52;2.03;;;0.77;;
13325;SDS011;6732;51.044;3.746;2022-10-16T00:11:19;3.17;;;1.17;;
13325;SDS011;6732;51.044;3.746;2022-10-16T00:13:59;2.70;;;1.08;;
13325;SDS011;6732;51.044;3.746;2022-10-16T00:16:27;1.30;;;1.20;;
13325;SDS011;6732;51.044;3.746;2022-10-16T00:18:53;2.47;;;1.20;;
13325;SDS011;6732;51.044;3.746;2022-10-16T00:21:22;1.20;;;0.98;;
13325;SDS011;6732;51.044;3.746;2022-10-16T00:23:50;1.52;;;1.08;;
13325;SDS011;6732;51.044;3.746;2022-10-16T00:26:17;1.90;;;1.30;;
13325;SDS011;6732;51.044;3.746;2022-10-16T00:28:48;2.25;;;1.10;;
13325;SDS011;6732;51.044;3.746;2022-10-16T00:31:15;1.48;;;1.15;;
13325;SDS011;6732;51.044;3.746;2022-10-16T00:33:42;0.80;;;0.80;;
13325;SDS011;6732;51.044;3.746;2022-10-16T00:36:12;1.20;;;1.02;;
13325;SDS011;6732;51.044;3.746;2022-10-16T00:38:40;1.02;;;0.77;;
13325;SDS011;6732;51.044;3.746;2022-10-16T00:41:06;1.63;;;1.00;;
13325;SDS011;6732;51.044;3.746;2022-10-16T00:43:35;1.02;;;1.00;;
13325;SDS011;6732;51.044;3.746;2022-10-16T00:46:13;2.78;;;1.13;;
13325;SDS011;6732;51.044;3.746;2022-10-16T00:51:25;1.85;;;1.00;;
13325;SDS011;6732;51.044;3.746;2022-10-16T00:53:56;2.15;;;1.00;;
13325;SDS011;6732;51.044;3.746;2022-10-16T00:56:22;1.10;;;1.00;;
13325;SDS011;6732;51.044;3.746;2022-10-16T00:58:48;0.80;;;0.80;;
13325;SDS011;6732;51.044;3.746;2022-10-16T01:01:14;1.33;;;1.02;;
13325;SDS011;6732;51.044;3.746;2022-10-16T01:03:40;0.75;;;0.75;;
13325;SDS011;6732;51.044;3.746;2022-10-16T01:09:10;2.25;;;1.10;;
13325;SDS011;6732;51.044;3.746;2022-10-16T01:18:03;2.20;;;0.70;;
13325;SDS011;6732;51.044;3.746;2022-10-16T01:20:33;1.80;;;1.02;;
13325;SDS011;6732;51.044;3.746;2022-10-16T01:29:09;1.50;;;0.82;;
13325;SDS011;6732;51.044;3.746;2022-10-16T01:31:19;1.80;;;0.90;;
13325;SDS011;6732;51.044;3.746;2022-10-16T01:36:36;1.92;;;0.65;;
13325;SDS011;6732;51.044;3.746;2022-10-16T01:39:05;1.05;;;0.80;;
13325;SDS011;6732;51.044;3.746;2022-10-16T01:41:35;1.05;;;0.80;;
13325;SDS011;6732;51.044;3.746;2022-10-16T01:44:14;2.22;;;0.80;;
13325;SDS011;6732;51.044;3.746;2022-10-16T01:46:48;1.02;;;0.93;;
13325;SDS011;6732;51.044;3.746;2022-10-16T01:49:16;1.50;;;0.98;;
13325;SDS011;6732;51.044;3.746;2022-10-16T01:51:44;1.13;;;1.02;;
13325;SDS011;6732;51.044;3.746;2022-10-16T01:54:12;1.27;;;0.82;;
13325;SDS011;6732;51.044;3.746;2022-10-16T01:56:40;1.15;;;1.00;;
13325;SDS011;6732;51.044;3.746;2022-10-16T01:59:18;4.20;;;1.15;;
13325;SDS011;6732;51.044;3.746;2022-10-16T02:01:47;3.22;;;1.00;;
13325;SDS011;6732;51.044;3.746;2022-10-16T02:04:27;1.90;;;1.00;;
13325;SDS011;6732;51.044;3.746;2022-10-16T02:06:57;1.48;;;0.95;;
13325;SDS011;6732;51.044;3.746;2022-10-16T02:09:23;2.28;;;0.80;;
13325;SDS011;6732;51.044;3.746;2022-10-16T02:11:50;1.70;;;0.85;;
13325;SDS011;6732;51.044;3.746;2022-10-16T02:14:19;1.17;;;1.08;;
13325;SDS011;6732;51.044;3.746;2022-10-16T02:16:47;1.50;;;0.90;;
13325;SDS011;6732;51.044;3.746;2022-10-16T02:19:13;1.48;;;1.10;;
13325;SDS011;6732;51.044;3.746;2022-10-16T02:21:45;2.10;;;1.00;;
13325;SDS011;6732;51.044;3.746;2022-10-16T02:27:01;1.80;;;0.80;;
13325;SDS011;6732;51.044;3.746;2022-10-16T02:29:59;1.48;;;1.00;;
13325;SDS011;6732;51.044;3.746;2022-10-16T02:32:35;4.30;;;0.93;;
13325;SDS011;6732;51.044;3.746;2022-10-16T02:35:03;1.38;;;0.90;;
13325;SDS011;6732;51.044;3.746;2022-10-16T02:37:30;1.33;;;0.90;;
13325;SDS011;6732;51.044;3.746;2022-10-16T02:39:57;2.20;;;0.90;;
13325;SDS011;6732;51.044;3.746;2022-10-16T02:42:27;1.02;;;0.90;;
13325;SDS011;6732;51.044;3.746;2022-10-16T02:44:54;1.52;;;0.75;;
13325;SDS011;6732;51.044;3.746;2022-10-16T02:47:20;3.40;;;1.10;;
13325;SDS011;6732;51.044;3.746;2022-10-16T02:49:46;1.55;;;1.00;;
13325;SDS011;6732;51.044;3.746;2022-10-16T02:52:12;1.30;;;1.00;;
13325;SDS011;6732;51.044;3.746;2022-10-16T02:54:38;1.10;;;0.95;;
13325;SDS011;6732;51.044;3.746;2022-10-16T02:57:04;4.10;;;1.08;;
13325;SDS011;6732;51.044;3.746;2022-10-16T02:59:30;1.98;;;0.98;;
13325;SDS011;6732;51.044;3.746;2022-10-16T03:01:56;1.17;;;1.08;;
13325;SDS011;6732;51.044;3.746;2022-10-16T03:04:22;0.88;;;0.85;;
13325;SDS011;6732;51.044;3.746;2022-10-16T03:06:48;4.70;;;1.40;;
13325;SDS011;6732;51.044;3.746;2022-10-16T03:09:14;1.13;;;1.02;;
13325;SDS011;6732;51.044;3.746;2022-10-16T03:11:40;1.05;;;1.00;;
13325;SDS011;6732;51.044;3.746;2022-10-16T03:14:06;1.05;;;0.90;;
13325;SDS011;6732;51.044;3.746;2022-10-16T03:16:32;2.85;;;1.17;;
13325;SDS011;6732;51.044;3.746;2022-10-16T03:18:58;1.38;;;1.10;;
13325;SDS011;6732;51.044;3.746;2022-10-16T03:21:24;1.60;;;1.10;;
13325;SDS011;6732;51.044;3.746;2022-10-16T03:23:50;2.25;;;1.27;;
13325;SDS011;6732;51.044;3.746;2022-10-16T03:26:16;1.77;;;1.02;;
13325;SDS011;6732;51.044;3.746;2022-10-16T03:28:42;1.27;;;1.00;;
13325;SDS011;6732;51.044;3.746;2022-10-16T03:31:08;1.67;;;0.88;;
13325;SDS011;6732;51.044;3.746;2022-10-16T03:33:34;2.65;;;1.20;;
13325;SDS011;6732;51.044;3.746;2022-10-16T03:36:00;1.27;;;1.10;;
13325;SDS011;6732;51.044;3.746;2022-10-16T03:38:26;1.85;;;0.88;;
13325;SDS011;6732;51.044;3.746;2022-10-16T03:40:52;3.88;;;1.30;;
13325;SDS011;6732;51.044;3.746;2022-10-16T03:43:18;1.75;;;0.90;;
13325;SDS011;6732;51.044;3.746;2022-10-16T03:45:43;1.85;;;1.00;;
13325;SDS011;6732;51.044;3.746;2022-10-16T03:48:09;1.73;;;0.93;;
13325;SDS011;6732;51.044;3.746;2022-10-16T03:50:35;2.55;;;1.20;;
13325;SDS011;6732;51.044;3.746;2022-10-16T03:53:02;1.33;;;1.23;;
13325;SDS011;6732;51.044;3.746;2022-10-16T03:55:28;1.75;;;1.17;;
13325;SDS011;6732;51.044;3.746;2022-10-16T03:57:54;1.20;;;1.02;;
13325;SDS011;6732;51.044;3.746;2022-10-16T04:00:20;2.47;;;1.02;;
13325;SDS011;6732;51.044;3.746;2022-10-16T04:02:46;3.58;;;1.15;;
13325;SDS011;6732;51.044;3.746;2022-10-16T04:05:12;2.35;;;1.35;;
13325;SDS011;6732;51.044;3.746;2022-10-16T04:07:38;2.95;;;1.30;;
13325;SDS011;6732;51.044;3.746;2022-10-16T04:10:04;2.40;;;1.60;;
13325;SDS011;6732;51.044;3.746;2022-10-16T04:12:31;4.13;;;1.10;;
13325;SDS011;6732;51.044;3.746;2022-10-16T04:14:57;1.70;;;1.33;;
13325;SDS011;6732;51.044;3.746;2022-10-16T04:17:22;3.03;;;1.30;;
13325;SDS011;6732;51.044;3.746;2022-10-16T04:19:48;2.17;;;1.40;;
13325;SDS011;6732;51.044;3.746;2022-10-16T04:22:14;2.75;;;1.75;;
13325;SDS011;6732;51.044;3.746;2022-10-16T04:24:40;2.55;;;1.13;;
13325;SDS011;6732;51.044;3.746;2022-10-16T04:27:06;1.45;;;1.15;;
13325;SDS011;6732;51.044;3.746;2022-10-16T04:29:32;4.03;;;1.40;;
13325;SDS011;6732;51.044;3.746;2022-10-16T04:31:58;2.50;;;1.40;;
13325;SDS011;6732;51.044;3.746;2022-10-16T04:34:24;1.77;;;1.27;;
13325;SDS011;6732;51.044;3.746;2022-10-16T04:36:50;2.70;;;1.55;;
13325;SDS011;6732;51.044;3.746;2022-10-16T04:39:16;2.80;;;1.38;;
13325;SDS011;6732;51.044;3.746;2022-10-16T04:41:42;3.35;;;1.80;;
13325;SDS011;6732;51.044;3.746;2022-10-16T04:44:08;3.78;;;1.90;;
13325;SDS011;6732;51.044;3.746;2022-10-16T04:46:34;2.63;;;1.55;;
13325;SDS011;6732;51.044;3.746;2022-10-16T04:49:00;3.25;;;1.40;;
13325;SDS011;6732;51.044;3.746;2022-10-16T04:51:26;2.78;;;1.60;;
13325;SDS011;6732;51.044;3.746;2022-10-16T04:53:53;2.50;;;1.30;;
13325;SDS011;6732;51.044;3.746;2022-10-16T04:56:20;3.55;;;1.58;;
13325;SDS011;6732;51.044;3.746;2022-10-16T04:58:46;2.08;;;1.30;;
13325;SDS011;6732;51.044;3.746;2022-10-16T05:01:13;2.35;;;1.55;;
13325;SDS011;6732;51.044;3.746;2022-10-16T05:03:39;3.28;;;1.80;;
13325;SDS011;6732;51.044;3.746;2022-10-16T05:06:05;4.22;;;1.63;;
13325;SDS011;6732;51.044;3.746;2022-10-16T05:08:32;2.25;;;1.40;;
13325;SDS011;6732;51.044;3.746;2022-10-16T05:10:58;3.92;;;1.40;;
13325;SDS011;6732;51.044;3.746;2022-10-16T05:13:23;4.72;;;1.42;;
13325;SDS011;6732;51.044;3.746;2022-10-16T05:15:49;6.78;;;1.40;;
13325;SDS011;6732;51.044;3.746;2022-10-16T05:18:16;3.08;;;1.42;;
13325;SDS011;6732;51.044;3.746;2022-10-16T05:20:42;3.92;;;2.15;;
13325;SDS011;6732;51.044;3.746;2022-10-16T05:23:08;1.77;;;1.42;;
13325;SDS011;6732;51.044;3.746;2022-10-16T05:25:36;2.50;;;1.50;;
13325;SDS011;6732;51.044;3.746;2022-10-16T05:28:02;2.20;;;1.20;;
13325;SDS011;6732;51.044;3.746;2022-10-16T05:30:28;1.60;;;1.08;;
13325;SDS011;6732;51.044;3.746;2022-10-16T05:32:54;2.00;;;1.02;;
13325;SDS011;6732;51.044;3.746;2022-10-16T05:35:20;2.92;;;1.60;;
13325;SDS011;6732;51.044;3.746;2022-10-16T05:37:47;2.40;;;1.45;;
13325;SDS011;6732;51.044;3.746;2022-10-16T05:40:13;2.60;;;1.50;;
13325;SDS011;6732;51.044;3.746;2022-10-16T05:42:40;2.95;;;1.50;;
13325;SDS011;6732;51.044;3.746;2022-10-16T05:45:06;3.03;;;1.50;;
13325;SDS011;6732;51.044;3.746;2022-10-16T05:47:34;2.33;;;1.35;;
13325;SDS011;6732;51.044;3.746;2022-10-16T05:50:00;3.05;;;1.45;;
13325;SDS011;6732;51.044;3.746;2022-10-16T05:52:27;1.98;;;1.30;;
13325;SDS011;6732;51.044;3.746;2022-10-16T05:54:53;2.22;;;1.23;;
13325;SDS011;6732;51.044;3.746;2022-10-16T05:57:18;2.28;;;1.70;;
13325;SDS011;6732;51.044;3.746;2022-10-16T05:59:44;2.33;;;1.45;;
13325;SDS011;6732;51.044;3.746;2022-10-16T06:02:14;2.65;;;1.33;;
13325;SDS011;6732;51.044;3.746;2022-10-16T06:04:40;4.97;;;1.60;;
13325;SDS011;6732;51.044;3.746;2022-10-16T06:07:06;2.03;;;1.38;;
13325;SDS011;6732;51.044;3.746;2022-10-16T06:09:32;3.05;;;1.60;;
13325;SDS011;6732;51.044;3.746;2022-10-16T06:11:58;2.92;;;1.38;;
13325;SDS011;6732;51.044;3.746;2022-10-16T06:14:24;6.03;;;1.52;;
13325;SDS011;6732;51.044;3.746;2022-10-16T06:16:50;2.00;;;1.50;;
13325;SDS011;6732;51.044;3.746;2022-10-16T06:19:16;1.85;;;1.38;;
13325;SDS011;6732;51.044;3.746;2022-10-16T06:21:42;1.65;;;1.45;;
13325;SDS011;6732;51.044;3.746;2022-10-16T06:24:09;3.30;;;1.40;;
13325;SDS011;6732;51.044;3.746;2022-10-16T06:26:35;3.50;;;1.70;;
13325;SDS011;6732;51.044;3.746;2022-10-16T06:29:02;3.50;;;1.88;;
13325;SDS011;6732;51.044;3.746;2022-10-16T06:31:28;4.20;;;1.52;;
13325;SDS011;6732;51.044;3.746;2022-10-16T06:33:56;3.00;;;1.67;;
13325;SDS011;6732;51.044;3.746;2022-10-16T06:36:23;2.95;;;2.08;;
13325;SDS011;6732;51.044;3.746;2022-10-16T06:38:49;4.53;;;1.90;;
13325;SDS011;6732;51.044;3.746;2022-10-16T06:41:16;3.05;;;1.63;;
13325;SDS011;6732;51.044;3.746;2022-10-16T06:43:44;2.95;;;1.63;;
13325;SDS011;6732;51.044;3.746;2022-10-16T06:46:11;2.00;;;1.30;;
13325;SDS011;6732;51.044;3.746;2022-10-16T06:48:39;2.60;;;1.50;;
13325;SDS011;6732;51.044;3.746;2022-10-16T06:51:06;7.28;;;1.85;;
13325;SDS011;6732;51.044;3.746;2022-10-16T06:53:40;4.10;;;1.65;;
13325;SDS011;6732;51.044;3.746;2022-10-16T06:56:16;4.28;;;1.48;;
13325;SDS011;6732;51.044;3.746;2022-10-16T06:58:52;2.63;;;1.75;;
13325;SDS011;6732;51.044;3.746;2022-10-16T07:01:19;2.97;;;1.70;;
13325;SDS011;6732;51.044;3.746;2022-10-16T07:03:47;2.30;;;1.13;;
13325;SDS011;6732;51.044;3.746;2022-10-16T07:06:17;2.05;;;1.60;;
13325;SDS011;6732;51.044;3.746;2022-10-16T07:08:46;2.80;;;1.20;;
13325;SDS011;6732;51.044;3.746;2022-10-16T07:11:15;2.88;;;1.75;;
13325;SDS011;6732;51.044;3.746;2022-10-16T07:13:43;2.38;;;1.40;;
13325;SDS011;6732;51.044;3.746;2022-10-16T07:16:10;3.53;;;1.60;;
13325;SDS011;6732;51.044;3.746;2022-10-16T07:18:38;3.90;;;1.60;;
13325;SDS011;6732;51.044;3.746;2022-10-16T07:23:39;3.20;;;1.90;;
13325;SDS011;6732;51.044;3.746;2022-10-16T07:26:06;4.00;;;1.77;;
13325;SDS011;6732;51.044;3.746;2022-10-16T07:28:33;4.32;;;2.22;;
13325;SDS011;6732;51.044;3.746;2022-10-16T07:31:09;7.03;;;1.90;;
13325;SDS011;6732;51.044;3.746;2022-10-16T07:33:37;3.80;;;1.55;;
13325;SDS011;6732;51.044;3.746;2022-10-16T07:36:04;1.88;;;1.60;;
13325;SDS011;6732;51.044;3.746;2022-10-16T07:38:38;3.47;;;1.45;;
13325;SDS011;6732;51.044;3.746;2022-10-16T07:41:04;3.78;;;1.48;;
13325;SDS011;6732;51.044;3.746;2022-10-16T07:43:32;3.17;;;1.70;;
13325;SDS011;6732;51.044;3.746;2022-10-16T07:45:58;2.90;;;1.30;;
13325;SDS011;6732;51.044;3.746;2022-10-16T07:48:28;2.17;;;1.55;;
13325;SDS011;6732;51.044;3.746;2022-10-16T07:50:59;4.68;;;1.48;;
13325;SDS011;6732;51.044;3.746;2022-10-16T07:53:29;2.60;;;1.73;;
13325;SDS011;6732;51.044;3.746;2022-10-16T07:55:59;4.35;;;1.90;;
13325;SDS011;6732;51.044;3.746;2022-10-16T07:58:30;2.40;;;1.55;;
13325;SDS011;6732;51.044;3.746;2022-10-16T08:03:25;2.22;;;1.60;;
13325;SDS011;6732;51.044;3.746;2022-10-16T08:05:59;3.75;;;1.40;;
13325;SDS011;6732;51.044;3.746;2022-10-16T08:08:25;2.83;;;1.40;;
13325;SDS011;6732;51.044;3.746;2022-10-16T08:10:52;3.35;;;1.70;;
13325;SDS011;6732;51.044;3.746;2022-10-16T08:13:18;3.95;;;1.27;;
13325;SDS011;6732;51.044;3.746;2022-10-16T08:15:44;2.08;;;1.40;;
13325;SDS011;6732;51.044;3.746;2022-10-16T08:18:11;4.05;;;1.67;;
13325;SDS011;6732;51.044;3.746;2022-10-16T08:20:39;2.00;;;1.50;;
13325;SDS011;6732;51.044;3.746;2022-10-16T08:23:06;4.28;;;1.70;;
13325;SDS011;6732;51.044;3.746;2022-10-16T08:25:36;4.72;;;1.58;;
13325;SDS011;6732;51.044;3.746;2022-10-16T08:28:06;3.20;;;1.45;;
13325;SDS011;6732;51.044;3.746;2022-10-16T08:30:33;4.15;;;1.60;;
13325;SDS011;6732;51.044;3.746;2022-10-16T08:32:59;4.20;;;1.90;;
13325;SDS011;6732;51.044;3.746;2022-10-16T08:35:25;3.45;;;1.40;;
13325;SDS011;6732;51.044;3.746;2022-10-16T08:37:51;4.93;;;1.58;;
13325;SDS011;6732;51.044;3.746;2022-10-16T08:40:18;2.92;;;1.58;;
13325;SDS011;6732;51.044;3.746;2022-10-16T08:48:00;1.33;;;1.00;;
13325;SDS011;6732;51.044;3.746;2022-10-16T08:50:30;6.47;;;1.60;;
13325;SDS011;6732;51.044;3.746;2022-10-16T08:52:58;4.32;;;1.70;;
13325;SDS011;6732;51.044;3.746;2022-10-16T08:55:29;4.70;;;1.27;;
13325;SDS011;6732;51.044;3.746;2022-10-16T08:58:15;2.15;;;1.40;;
13325;SDS011;6732;51.044;3.746;2022-10-16T09:00:54;2.97;;;1.48;;
13325;SDS011;6732;51.044;3.746;2022-10-16T09:03:48;3.80;;;2.05;;
13325;SDS011;6732;51.044;3.746;2022-10-16T09:06:55;7.35;;;1.98;;
13325;SDS011;6732;51.044;3.746;2022-10-16T09:09:56;5.13;;;1.52;;
13325;SDS011;6732;51.044;3.746;2022-10-16T09:13:00;5.05;;;1.70;;
13325;SDS011;6732;51.044;3.746;2022-10-16T09:15:32;5.53;;;1.60;;
13325;SDS011;6732;51.044;3.746;2022-10-16T09:20:53;5.88;;;1.80;;
13325;SDS011;6732;51.044;3.746;2022-10-16T09:23:39;4.20;;;1.50;;
13325;SDS011;6732;51.044;3.746;2022-10-16T09:26:05;3.67;;;1.60;;
13325;SDS011;6732;51.044;3.746;2022-10-16T09:28:36;2.10;;;1.70;;
13325;SDS011;6732;51.044;3.746;2022-10-16T09:31:02;4.10;;;1.40;;
13325;SDS011;6732;51.044;3.746;2022-10-16T09:33:29;2.70;;;1.70;;
13325;SDS011;6732;51.044;3.746;2022-10-16T09:36:00;3.70;;;2.00;;
13325;SDS011;6732;51.044;3.746;2022-10-16T09:38:35;3.67;;;1.50;;
13325;SDS011;6732;51.044;3.746;2022-10-16T09:41:02;5.82;;;1.40;;
13325;SDS011;6732;51.044;3.746;2022-10-16T09:43:54;3.75;;;1.60;;
13325;SDS011;6732;51.044;3.746;2022-10-16T09:46:30;6.63;;;1.83;;
13325;SDS011;6732;51.044;3.746;2022-10-16T09:51:47;5.28;;;1.60;;
13325;SDS011;6732;51.044;3.746;2022-10-16T09:54:14;6.45;;;1.45;;
13325;SDS011;6732;51.044;3.746;2022-10-16T09:56:42;7.82;;;1.75;;
13325;SDS011;6732;51.044;3.746;2022-10-16T09:59:14;4.80;;;1.60;;
13325;SDS011;6732;51.044;3.746;2022-10-16T10:04:11;8.23;;;1.83;;
13325;SDS011;6732;51.044;3.746;2022-10-16T10:06:45;6.30;;;1.92;;
13325;SDS011;6732;51.044;3.746;2022-10-16T10:09:16;4.63;;;1.55;;
13325;SDS011;6732;51.044;3.746;2022-10-16T10:17:44;8.88;;;1.67;;
13325;SDS011;6732;51.044;3.746;2022-10-16T10:19:52;5.63;;;1.40;;
13325;SDS011;6732;51.044;3.746;2022-10-16T10:22:28;5.95;;;1.77;;
13325;SDS011;6732;51.044;3.746;2022-10-16T10:30:22;8.75;;;1.77;;
13325;SDS011;6732;51.044;3.746;2022-10-16T10:38:50;5.88;;;1.80;;
13325;SDS011;6732;51.044;3.746;2022-10-16T10:56:42;6.57;;;1.70;;
13325;SDS011;6732;51.044;3.746;2022-10-16T11:01:28;4.85;;;1.58;;
13325;SDS011;6732;51.044;3.746;2022-10-16T11:07:04;7.82;;;1.45;;
13325;SDS011;6732;51.044;3.746;2022-10-16T11:09:36;5.55;;;1.75;;
13325;SDS011;6732;51.044;3.746;2022-10-16T11:12:13;9.38;;;1.58;;
13325;SDS011;6732;51.044;3.746;2022-10-16T11:17:57;4.25;;;1.70;;
13325;SDS011;6732;51.044;3.746;2022-10-16T11:20:32;7.97;;;1.50;;
13325;SDS011;6732;51.044;3.746;2022-10-16T11:23:08;5.03;;;1.75;;
13325;SDS011;6732;51.044;3.746;2022-10-16T11:25:37;6.05;;;1.60;;
13325;SDS011;6732;51.044;3.746;2022-10-16T11:30:32;7.88;;;2.05;;
13325;SDS011;6732;51.044;3.746;2022-10-16T11:35:46;6.25;;;1.60;;
13325;SDS011;6732;51.044;3.746;2022-10-16T11:38:20;6.18;;;1.58;;
13325;SDS011;6732;51.044;3.746;2022-10-16T11:41:17;3.63;;;1.63;;
13325;SDS011;6732;51.044;3.746;2022-10-16T11:46:35;6.63;;;1.70;;
13325;SDS011;6732;51.044;3.746;2022-10-16T11:51:45;3.45;;;1.42;;
13325;SDS011;6732;51.044;3.746;2022-10-16T11:57:28;8.25;;;1.60;;
13325;SDS011;6732;51.044;3.746;2022-10-16T12:00:02;6.13;;;1.52;;
13325;SDS011;6732;51.044;3.746;2022-10-16T12:08:33;7.15;;;1.75;;
13325;SDS011;6732;51.044;3.746;2022-10-16T12:11:08;4.22;;;1.23;;
13325;SDS011;6732;51.044;3.746;2022-10-16T12:14:04;3.13;;;1.40;;
13325;SDS011;6732;51.044;3.746;2022-10-16T12:25:34;2.92;;;1.40;;
13325;SDS011;6732;51.044;3.746;2022-10-16T12:30:33;4.15;;;1.38;;
